Chicago Rockford International Airport Chicago,Rockford US
ICAO: KRFD
IATA: RFD
Category: Large
Scheduled Services: Yes

Elevation: 742 ft
TransAlt. 18000 ft.

Airport Communications:
ROCKFORD APP/DEP:121
ATIS:126.7
CLNC DEL:119.25
GND:121.9
KANKAKEE RDO:122.65
ROCKFORD TWR:118.3
UNICOM:122.95

KRFD Zoom In..

If you have problems with the map follow the link
https://www.worldairports.se/pages/airport.php?
ICAO=KRFD

Runways:

(A) RW 01 length 8200 ft width 150 ft
ILS 109.30 / hdg 5

(B) RW 07 length 10002 ft width 150 ft
ILS 109.55 / hdg 65

(C) RW 19 length 8200 ft width 150 ft
---- / hdg 185

(D) RW 25 length 10002 ft width 150 ft
---- / hdg 245

Location; KRFD
Day. 24 / Time. 07.54 Zulu
* Altimeter: 29.87
* Temperature: -15° c. -5°f.
* Wind from: 160° Speed 04 kn.
Dewpoint: -17° c.
Visibility: 8 Statute Miles.
Clouds: Clear (automated report).

KRFD 240754Z 16004KT 8SM CLR M15/M17 A2987 RMK AO2 SLP128 I1000 T11501172


Wind From 160°
Speed 04 kn.

 
 
jpsmedia.com for Web Design worldairports.se 2019   terms of use